Time;durP1;ratioP1;P1;durP2;ratioP2;P2;SDS_P1;SDS_P2;PMS_P1;PMS_P2;Temp;Humidity;BMP_temperature;BMP_pressure;BME280_temperature;BME280_humidity;BME280_pressure;Samples;Min_cycle;Max_cycle;Signal;HPM_P1;HPM_P2
2021/11/13 00:00:34;;;;;;;29.43;26.40;;;3.50;73.40;;;;;;4993958;28;20429;-93
2021/11/13 00:03:00;;;;;;;30.27;27.43;;;3.50;73.10;;;;;;4993883;28;20437;-95
2021/11/13 00:05:26;;;;;;;31.50;28.40;;;3.50;73.20;;;;;;4992797;28;20911;-93
2021/11/13 00:07:53;;;;;;;32.60;29.50;;;3.50;72.60;;;;;;4992664;28;20233;-92
2021/11/13 00:10:26;;;;;;;29.77;27.07;;;3.50;72.40;;;;;;4992970;28;20525;-94
2021/11/13 00:12:53;;;;;;;28.77;25.93;;;3.40;71.80;;;;;;4993405;28;20978;-92
2021/11/13 00:15:20;;;;;;;29.43;26.73;;;3.40;72.00;;;;;;4994304;28;20425;-93
2021/11/13 00:17:46;;;;;;;30.30;27.57;;;3.40;73.00;;;;;;4993998;28;20422;-92
2021/11/13 00:20:12;;;;;;;29.80;27.00;;;3.40;73.40;;;;;;4994369;28;20770;-92
2021/11/13 00:22:38;;;;;;;33.17;27.33;;;3.40;71.70;;;;;;4976333;28;20457;-94
2021/11/13 00:25:04;;;;;;;30.00;27.10;;;3.30;71.80;;;;;;4992842;28;20228;-93
2021/11/13 00:27:31;;;;;;;31.03;28.23;;;3.10;70.70;;;;;;4994061;28;20565;-92
2021/11/13 00:29:57;;;;;;;30.97;27.87;;;3.10;69.80;;;;;;4993082;28;20460;-91
2021/11/13 00:32:22;;;;;;;29.03;26.33;;;3.00;70.20;;;;;;4994671;28;20861;-93
2021/11/13 00:34:48;;;;;;;31.93;28.97;;;2.90;71.80;;;;;;4993525;28;20446;-94
2021/11/13 00:37:14;;;;;;;31.33;28.23;;;2.90;72.70;;;;;;4993347;28;20205;-93
2021/11/13 00:39:40;;;;;;;33.67;30.33;;;2.70;74.30;;;;;;4994123;28;20481;-93
2021/11/13 00:42:06;;;;;;;33.30;29.70;;;2.70;75.40;;;;;;4994703;28;20190;-93
2021/11/13 00:44:34;;;;;;;32.63;29.53;;;2.60;75.30;;;;;;4993859;28;20488;-93
2021/11/13 00:47:01;;;;;;;31.63;28.77;;;2.70;75.40;;;;;;4993757;28;20837;-93
2021/11/13 00:49:28;;;;;;;32.27;29.20;;;2.60;75.30;;;;;;4994347;28;20464;-94
2021/11/13 00:51:54;;;;;;;32.38;29.50;;;2.60;76.30;;;;;;4993672;28;20462;-94
2021/11/13 00:54:20;;;;;;;31.90;28.70;;;2.60;76.00;;;;;;4995675;28;20203;-94
2021/11/13 00:56:47;;;;;;;32.10;29.10;;;2.50;76.40;;;;;;4995112;28;20977;-92
2021/11/13 01:02:34;;;;;;;29.90;26.90;;;2.60;76.90;;;;;;4977650;28;20162;-94
2021/11/13 01:05:00;;;;;;;34.33;30.67;;;2.60;77.30;;;;;;4992855;28;20449;-94
2021/11/13 01:07:26;;;;;;;30.80;27.87;;;2.50;77.60;;;;;;4992140;28;20285;-92
2021/11/13 01:09:52;;;;;;;31.77;28.67;;;2.60;79.20;;;;;;4992954;28;20410;-93
2021/11/13 01:12:18;;;;;;;32.03;28.80;;;2.70;79.30;;;;;;4992592;28;20465;-92
2021/11/13 01:14:44;;;;;;;32.80;29.50;;;2.80;78.30;;;;;;4992001;28;20179;-95
2021/11/13 01:17:12;;;;;;;32.30;28.87;;;2.90;77.30;;;;;;4992486;28;20190;-92
2021/11/13 01:19:41;;;;;;;33.03;29.80;;;2.90;75.80;;;;;;4994337;28;20179;-93
2021/11/13 01:22:07;;;;;;;32.13;29.13;;;2.90;77.80;;;;;;4993671;28;20918;-94
2021/11/13 01:24:33;;;;;;;32.43;29.20;;;2.80;77.40;;;;;;4993146;28;20426;-92
2021/11/13 01:26:59;;;;;;;32.90;29.47;;;2.80;78.20;;;;;;4992551;28;20418;-91
2021/11/13 01:29:25;;;;;;;31.60;28.30;;;2.80;77.30;;;;;;4995678;28;20477;-92
2021/11/13 01:31:51;;;;;;;32.00;29.00;;;2.80;76.60;;;;;;4996703;28;20478;-93
2021/11/13 01:34:17;;;;;;;31.43;28.23;;;2.60;77.20;;;;;;5011015;28;20425;-92
2021/11/13 01:36:43;;;;;;;32.17;28.53;;;2.50;77.90;;;;;;4997046;28;20194;-93
2021/11/13 01:39:09;;;;;;;31.07;27.97;;;2.50;78.90;;;;;;4996285;28;20410;-93
2021/11/13 01:41:36;;;;;;;32.37;29.07;;;2.40;80.70;;;;;;4997336;28;20229;-94
2021/11/13 01:44:04;;;;;;;34.87;31.30;;;2.40;80.30;;;;;;4996476;28;20217;-94
2021/11/13 01:46:29;;;;;;;30.67;27.67;;;2.50;82.30;;;;;;4996142;28;20441;-94
2021/11/13 01:48:55;;;;;;;33.83;30.50;;;2.40;80.70;;;;;;4996018;28;20425;-94
2021/11/13 01:51:27;;;;;;;32.40;26.97;;;2.40;82.00;;;;;;4994346;28;20206;-92
2021/11/13 01:53:55;;;;;;;31.42;28.27;;;2.40;80.00;;;;;;4994128;28;20175;-93
2021/11/13 01:56:22;;;;;;;30.00;26.73;;;2.40;82.30;;;;;;4995634;28;20202;-93
2021/11/13 01:58:52;;;;;;;30.23;27.23;;;2.50;82.70;;;;;;4994519;28;20236;-92
2021/11/13 02:01:17;;;;;;;28.23;25.52;;;2.60;82.70;;;;;;4994196;28;20422;-93
2021/11/13 02:03:47;;;;;;;29.77;26.83;;;2.60;79.70;;;;;;4994970;28;20665;-94
2021/11/13 02:06:17;;;;;;;28.20;25.30;;;2.40;80.00;;;;;;4994754;28;20192;-94
2021/11/13 02:08:44;;;;;;;28.27;25.38;;;2.40;82.20;;;;;;4994418;28;20422;-94
2021/11/13 02:11:11;;;;;;;28.27;25.10;;;2.40;82.60;;;;;;4995367;28;20209;-91
2021/11/13 02:13:37;;;;;;;28.48;25.48;;;2.40;81.70;;;;;;4994478;28;20182;-92
2021/11/13 02:16:03;;;;;;;29.40;26.65;;;2.50;81.70;;;;;;4995285;28;20182;-93
2021/11/13 02:18:29;;;;;;;31.77;28.47;;;2.50;82.10;;;;;;4995317;28;20210;-93
2021/11/13 02:20:55;;;;;;;30.00;27.10;;;2.50;81.40;;;;;;4995770;28;20415;-93
2021/11/13 02:23:23;;;;;;;27.50;24.80;;;2.50;80.80;;;;;;5005642;28;20414;-93
2021/11/13 02:25:53;;;;;;;30.23;27.40;;;2.50;80.90;;;;;;5000286;28;20468;-94
2021/11/13 02:28:21;;;;;;;28.53;25.93;;;2.50;80.10;;;;;;4994626;28;20433;-92
2021/11/13 02:30:49;;;;;;;27.60;24.80;;;2.40;81.30;;;;;;4993622;28;20425;-93
2021/11/13 02:33:15;;;;;;;26.47;24.07;;;2.50;80.70;;;;;;4994150;28;20428;-93
2021/11/13 02:35:42;;;;;;;27.20;24.50;;;2.50;81.70;;;;;;4995091;28;20415;-91
2021/11/13 02:38:17;;;;;;;27.20;24.50;;;2.50;79.00;;;;;;4996084;28;20957;-91
2021/11/13 02:40:47;;;;;;;29.27;26.27;;;2.40;80.20;;;;;;4994082;28;20509;-92
2021/11/13 02:43:14;;;;;;;30.40;27.35;;;2.30;79.90;;;;;;4994214;28;20422;-92
2021/11/13 02:45:41;;;;;;;27.80;25.20;;;2.20;82.40;;;;;;4995083;28;20179;-92
2021/11/13 02:48:07;;;;;;;30.03;26.80;;;2.40;84.30;;;;;;4995651;28;20425;-94
2021/11/13 02:50:35;;;;;;;26.90;24.40;;;2.20;82.50;;;;;;4994517;28;20508;-94
2021/11/13 02:53:09;;;;;;;26.97;24.37;;;2.30;82.20;;;;;;4993973;28;20547;-92
2021/11/13 02:55:35;;;;;;;27.97;25.27;;;2.40;84.10;;;;;;4994018;28;20414;-94
2021/11/13 02:58:00;;;;;;;29.23;26.33;;;2.40;82.20;;;;;;4994495;28;20433;-94
2021/11/13 03:00:28;;;;;;;28.37;25.57;;;2.50;83.30;;;;;;4994149;28;20183;-93
2021/11/13 03:02:55;;;;;;;26.77;24.27;;;2.60;82.50;;;;;;4994246;28;20218;-94
2021/11/13 03:05:33;;;;;;;27.40;24.60;;;2.50;82.50;;;;;;4993603;28;20421;-94
2021/11/13 03:08:02;;;;;;;26.63;24.13;;;2.50;82.80;;;;;;4993566;28;20421;-94
2021/11/13 03:10:30;;;;;;;27.97;25.00;;;2.60;82.00;;;;;;4993901;28;20421;-92
2021/11/13 03:12:56;;;;;;;28.27;25.60;;;2.60;82.70;;;;;;4994024;28;20484;-93
2021/11/13 03:15:24;;;;;;;26.27;24.00;;;2.70;82.40;;;;;;4993753;28;20417;-92
2021/11/13 03:17:51;;;;;;;26.90;24.40;;;2.70;82.40;;;;;;4993053;28;20175;-94
2021/11/13 03:20:20;;;;;;;27.67;24.97;;;2.80;81.00;;;;;;4993147;28;20419;-93
2021/11/13 03:22:47;;;;;;;26.50;24.00;;;2.80;78.50;;;;;;4993432;28;20422;-92
2021/11/13 03:25:23;;;;;;;26.93;24.33;;;2.80;79.50;;;;;;4993092;28;20417;-94
2021/11/13 03:27:52;;;;;;;26.27;23.92;;;2.80;79.50;;;;;;4994013;28;20421;-92
2021/11/13 03:30:20;;;;;;;25.97;23.17;;;2.80;79.00;;;;;;4993508;28;20272;-93
2021/11/13 03:32:46;;;;;;;24.50;22.35;;;2.70;78.60;;;;;;4993138;28;20974;-94
2021/11/13 03:35:14;;;;;;;24.23;22.03;;;2.70;77.00;;;;;;4993887;28;20276;-92
2021/11/13 03:37:40;;;;;;;23.67;21.57;;;2.60;77.20;;;;;;4993636;28;20809;-92
2021/11/13 03:40:08;;;;;;;24.17;21.97;;;2.60;76.80;;;;;;4993427;28;20523;-94
2021/11/13 03:42:34;;;;;;;22.40;20.30;;;2.60;76.70;;;;;;4994711;28;20433;-93
2021/11/13 03:45:00;;;;;;;21.73;19.83;;;2.60;75.90;;;;;;4996556;28;20421;-91
2021/11/13 03:47:26;;;;;;;22.67;20.67;;;2.50;74.80;;;;;;4995175;28;20189;-91
2021/11/13 03:49:51;;;;;;;19.93;18.13;;;2.50;74.80;;;;;;4992924;28;20421;-92
2021/11/13 03:52:17;;;;;;;22.43;20.53;;;2.60;74.40;;;;;;4992638;28;20206;-92
2021/11/13 03:54:43;;;;;;;19.90;18.20;;;2.60;73.90;;;;;;4993053;28;20193;-91
2021/11/13 03:57:09;;;;;;;18.37;16.87;;;2.60;73.60;;;;;;4993426;28;20188;-94
2021/11/13 03:59:34;;;;;;;20.20;18.60;;;2.60;72.50;;;;;;4993416;28;20232;-94
2021/11/13 04:02:00;;;;;;;19.37;17.80;;;2.60;72.40;;;;;;4991944;28;20187;-92
2021/11/13 04:04:26;;;;;;;19.53;17.93;;;2.60;72.20;;;;;;4992060;28;20217;-92
2021/11/13 04:06:52;;;;;;;19.90;18.33;;;2.80;72.40;;;;;;4992236;28;20428;-91
2021/11/13 04:09:18;;;;;;;18.87;17.37;;;2.90;71.70;;;;;;4992386;28;20183;-93
2021/11/13 04:11:44;;;;;;;19.33;17.63;;;2.90;70.90;;;;;;4992089;28;20522;-93
2021/11/13 04:14:09;;;;;;;19.37;17.83;;;2.80;70.60;;;;;;4991911;28;20410;-92
2021/11/13 04:16:35;;;;;;;20.80;19.13;;;2.90;70.70;;;;;;4991749;28;20921;-93
2021/11/13 04:19:01;;;;;;;20.03;18.37;;;3.00;70.80;;;;;;4992046;28;20171;-92
2021/11/13 04:25:19;;;;;;;18.77;17.17;;;3.10;70.40;;;;;;4980446;28;20158;-94
2021/11/13 04:27:50;;;;;;;20.17;18.47;;;3.20;69.40;;;;;;4917173;29;20488;-92
2021/11/13 04:30:16;;;;;;;20.53;18.80;;;3.10;69.70;;;;;;4975692;28;20418;-92
2021/11/13 04:32:46;;;;;;;19.70;18.17;;;3.20;69.90;;;;;;4976386;28;20797;-90
2021/11/13 04:35:34;;;;;;;20.30;18.70;;;3.20;68.80;;;;;;4973813;28;20422;-87
2021/11/13 04:38:01;;;;;;;20.77;19.17;;;3.20;69.00;;;;;;4975894;28;20453;-93
2021/11/13 04:40:30;;;;;;;20.00;18.40;;;3.30;69.50;;;;;;4977107;28;20418;-88
2021/11/13 04:42:57;;;;;;;18.97;17.47;;;3.30;68.80;;;;;;4975270;28;20458;-91
2021/11/13 04:45:23;;;;;;;19.80;18.20;;;3.40;68.60;;;;;;4975379;28;20481;-93
2021/11/13 04:47:49;;;;;;;20.33;18.43;;;3.40;68.20;;;;;;4973547;28;20442;-90
2021/11/13 04:50:19;;;;;;;21.67;19.93;;;3.50;68.20;;;;;;4974680;28;20448;-92
2021/11/13 04:52:46;;;;;;;19.43;17.77;;;3.50;67.80;;;;;;4975397;28;20569;-91
2021/11/13 04:55:13;;;;;;;19.77;18.07;;;3.60;69.30;;;;;;4993800;28;20437;-91
2021/11/13 04:57:39;;;;;;;20.60;18.80;;;3.60;67.80;;;;;;4988837;28;20442;-92
2021/11/13 05:00:09;;;;;;;21.13;19.33;;;3.70;67.50;;;;;;4998031;28;20422;-92
2021/11/13 05:02:34;;;;;;;20.90;19.20;;;3.70;68.00;;;;;;4997592;28;20410;-93
2021/11/13 05:05:00;;;;;;;20.73;19.07;;;3.70;68.00;;;;;;4985018;28;20425;-92
2021/11/13 05:07:26;;;;;;;21.40;19.63;;;3.80;67.90;;;;;;4979690;28;20279;-92
2021/11/13 05:09:56;;;;;;;19.83;18.23;;;3.70;67.30;;;;;;4979604;28;20190;-92
2021/11/13 05:12:22;;;;;;;20.60;18.90;;;3.80;67.60;;;;;;4979435;28;20211;-93
2021/11/13 05:14:48;;;;;;;20.70;19.00;;;3.80;68.10;;;;;;4978690;28;20421;-93
2021/11/13 05:17:13;;;;;;;21.50;19.60;;;3.90;67.30;;;;;;4978975;28;20919;-93
2021/11/13 05:19:40;;;;;;;20.57;18.63;;;3.90;66.70;;;;;;4979039;28;20182;-92
2021/11/13 05:22:06;;;;;;;19.70;18.00;;;4.00;66.80;;;;;;4978290;28;20477;-93
2021/11/13 05:24:32;;;;;;;19.90;18.20;;;4.00;66.70;;;;;;4978771;28;20483;-92
2021/11/13 05:26:58;;;;;;;18.90;17.30;;;4.10;65.90;;;;;;4978747;28;20423;-94
2021/11/13 05:29:24;;;;;;;19.47;17.87;;;4.10;64.90;;;;;;4978003;28;20429;-93
2021/11/13 05:31:49;;;;;;;19.77;18.07;;;4.10;65.60;;;;;;4978374;28;20561;-92
2021/11/13 05:34:15;;;;;;;19.37;17.87;;;4.10;64.80;;;;;;4979121;28;20182;-91
2021/11/13 05:36:41;;;;;;;18.93;17.40;;;4.10;64.30;;;;;;4980052;28;20590;-92
2021/11/13 05:39:08;;;;;;;18.63;17.00;;;4.10;64.20;;;;;;4979853;28;20265;-92
2021/11/13 05:41:34;;;;;;;20.17;18.57;;;4.10;63.80;;;;;;4979394;28;20183;-92
2021/11/13 05:44:01;;;;;;;18.87;17.37;;;4.10;63.60;;;;;;4979398;28;20505;-93
2021/11/13 05:46:26;;;;;;;18.17;16.67;;;4.10;63.80;;;;;;4978817;28;20449;-91
2021/11/13 05:48:52;;;;;;;18.30;16.70;;;4.10;63.70;;;;;;4977542;28;20547;-92
2021/11/13 05:51:18;;;;;;;18.30;16.80;;;4.20;64.60;;;;;;4959530;28;20273;-90
2021/11/13 05:53:44;;;;;;;17.80;16.33;;;4.20;64.30;;;;;;4958188;29;20418;-91
2021/11/13 05:56:10;;;;;;;19.40;17.70;;;4.20;63.90;;;;;;4959323;28;20892;-92
2021/11/13 05:58:36;;;;;;;17.10;15.50;;;4.20;64.80;;;;;;4958837;29;20431;-91
2021/11/13 06:01:03;;;;;;;18.27;16.87;;;4.20;64.10;;;;;;4957974;29;20203;-92
2021/11/13 06:03:29;;;;;;;19.00;17.40;;;4.20;64.00;;;;;;4958353;29;20506;-93
2021/11/13 06:05:54;;;;;;;16.73;15.43;;;4.20;63.80;;;;;;4958392;29;20458;-92
2021/11/13 06:08:20;;;;;;;19.67;17.90;;;4.30;63.80;;;;;;4958182;29;20202;-92
2021/11/13 06:10:46;;;;;;;18.03;16.53;;;4.30;64.10;;;;;;4958697;29;20648;-91
2021/11/13 06:13:11;;;;;;;18.67;17.17;;;4.30;63.40;;;;;;4958636;29;20690;-93
2021/11/13 06:15:37;;;;;;;17.07;15.57;;;4.30;63.40;;;;;;4958233;28;20258;-91
2021/11/13 06:18:06;;;;;;;17.23;15.73;;;4.20;62.30;;;;;;4957162;29;20175;-94
2021/11/13 06:20:41;;;;;;;17.13;15.73;;;4.30;63.20;;;;;;5142330;23;21264;-90
2021/11/13 06:23:14;;;;;;;17.70;16.30;;;4.40;62.90;;;;;;4976457;28;20425;-92
2021/11/13 06:25:40;;;;;;;18.73;17.13;;;4.40;63.60;;;;;;4976049;28;20414;-94
2021/11/13 06:28:06;;;;;;;18.43;16.93;;;4.50;63.60;;;;;;4976755;28;20224;-93
2021/11/13 06:30:31;;;;;;;16.93;15.33;;;4.60;63.40;;;;;;4977979;28;20266;-95
2021/11/13 06:32:57;;;;;;;17.07;15.67;;;4.70;62.40;;;;;;4978786;28;20214;-96
2021/11/13 06:35:23;;;;;;;18.13;16.30;;;4.70;62.60;;;;;;4978538;28;20179;-94
2021/11/13 06:37:49;;;;;;;17.03;15.63;;;4.80;62.90;;;;;;4976228;28;20186;-93
2021/11/13 06:40:18;;;;;;;17.93;16.43;;;4.80;61.70;;;;;;4975892;28;20182;-94
2021/11/13 06:42:44;;;;;;;15.93;14.53;;;4.70;62.30;;;;;;4976011;28;20465;-94
2021/11/13 06:45:12;;;;;;;15.70;14.40;;;4.90;61.80;;;;;;4975619;28;20798;-94
2021/11/13 06:47:38;;;;;;;16.83;15.33;;;4.90;61.50;;;;;;4975849;28;20520;-95
2021/11/13 06:50:06;;;;;;;16.00;14.70;;;4.90;61.90;;;;;;4977309;28;20492;-95
2021/11/13 06:52:31;;;;;;;15.53;14.13;;;4.90;61.40;;;;;;4975625;28;20513;-92
2021/11/13 06:54:57;;;;;;;14.47;13.10;;;5.00;61.00;;;;;;4977286;28;20784;-92
2021/11/13 06:57:23;;;;;;;15.73;14.33;;;5.10;59.90;;;;;;4985542;28;20194;-93
2021/11/13 06:59:48;;;;;;;16.73;15.23;;;5.20;59.20;;;;;;4983528;28;20206;-93
2021/11/13 07:02:17;;;;;;;15.67;14.20;;;5.20;59.40;;;;;;4976864;28;20273;-93
2021/11/13 07:04:43;;;;;;;14.27;13.07;;;5.30;59.50;;;;;;4975076;28;20225;-91
2021/11/13 07:07:26;;;;;;;14.77;13.57;;;5.30;58.90;;;;;;4976718;28;20496;-93
2021/11/13 07:09:51;;;;;;;15.40;14.10;;;5.30;58.00;;;;;;4976954;28;20488;-92
2021/11/13 07:12:17;;;;;;;16.67;15.13;;;5.30;58.60;;;;;;4975618;28;20521;-86
2021/11/13 07:14:43;;;;;;;16.40;14.77;;;5.30;58.50;;;;;;4974050;28;20190;-88
2021/11/13 07:17:09;;;;;;;14.93;13.63;;;5.20;59.10;;;;;;4977385;28;20434;-95
2021/11/13 07:19:35;;;;;;;15.67;14.27;;;5.30;59.20;;;;;;4975936;28;20207;-93
2021/11/13 07:22:00;;;;;;;15.97;14.67;;;5.30;58.90;;;;;;4964092;29;20213;-93
2021/11/13 07:24:32;;;;;;;15.53;14.23;;;5.30;58.90;;;;;;4967072;28;20435;-96
2021/11/13 07:26:58;;;;;;;16.13;14.63;;;5.40;58.10;;;;;;4987532;28;20644;-89
2021/11/13 07:29:26;;;;;;;16.57;15.13;;;5.30;58.00;;;;;;4966956;28;20480;-85
2021/11/13 07:31:52;;;;;;;15.70;14.20;;;5.20;57.70;;;;;;4973605;28;20671;-88
2021/11/13 07:34:18;;;;;;;16.03;14.43;;;5.20;57.90;;;;;;4973568;28;20446;-91
2021/11/13 07:36:44;;;;;;;14.80;13.60;;;5.30;58.00;;;;;;4973486;28;21110;-92
2021/11/13 07:39:09;;;;;;;16.73;15.23;;;5.30;58.00;;;;;;4974266;28;20425;-90
2021/11/13 07:41:35;;;;;;;14.60;13.23;;;5.40;58.00;;;;;;4974127;28;20187;-91
2021/11/13 07:44:01;;;;;;;14.43;13.23;;;5.40;58.20;;;;;;4974066;28;20274;-89
2021/11/13 07:46:26;;;;;;;14.03;12.67;;;5.40;58.60;;;;;;4973395;28;20285;-90
2021/11/13 07:48:53;;;;;;;14.00;12.77;;;5.50;58.20;;;;;;4974129;28;20187;-91
2021/11/13 07:51:21;;;;;;;14.70;13.20;;;5.50;58.60;;;;;;4974434;28;20206;-90
2021/11/13 07:53:47;;;;;;;12.97;11.77;;;5.50;58.50;;;;;;4975055;28;20426;-89
2021/11/13 07:56:14;;;;;;;14.13;12.83;;;5.50;58.60;;;;;;4974765;28;20793;-91
2021/11/13 07:58:40;;;;;;;13.33;12.13;;;5.50;58.10;;;;;;4974619;28;20414;-90
2021/11/13 08:01:05;;;;;;;12.90;11.77;;;5.60;56.20;;;;;;4974444;28;20430;-91
2021/11/13 08:03:31;;;;;;;12.90;11.80;;;5.70;57.20;;;;;;4974679;28;20229;-89
2021/11/13 08:05:57;;;;;;;13.13;12.03;;;5.70;56.90;;;;;;4974646;28;20179;-92
2021/11/13 08:08:23;;;;;;;13.90;12.50;;;5.90;56.80;;;;;;4974734;28;20644;-91
2021/11/13 08:10:49;;;;;;;13.77;12.50;;;5.90;56.60;;;;;;4974413;28;20464;-91
2021/11/13 08:13:17;;;;;;;15.47;13.87;;;5.90;56.30;;;;;;4974382;28;20457;-91
2021/11/13 08:15:43;;;;;;;15.03;13.63;;;5.90;56.80;;;;;;4975031;28;20763;-90
2021/11/13 08:18:10;;;;;;;13.00;11.90;;;6.00;57.00;;;;;;4973885;28;20426;-90
2021/11/13 08:20:37;;;;;;;13.90;12.60;;;6.00;57.10;;;;;;4974076;28;20277;-91
2021/11/13 08:23:09;;;;;;;13.77;12.47;;;6.10;57.20;;;;;;4974147;28;20764;-89
2021/11/13 08:25:36;;;;;;;13.13;12.00;;;6.00;56.70;;;;;;4974286;28;20418;-90
2021/11/13 08:28:03;;;;;;;14.10;12.60;;;6.10;56.50;;;;;;4973573;28;20480;-90
2021/11/13 08:30:30;;;;;;;13.13;11.93;;;6.10;56.90;;;;;;4974270;28;20414;-89
2021/11/13 08:32:57;;;;;;;13.97;12.77;;;6.10;57.30;;;;;;4973941;28;20472;-91
2021/11/13 08:35:23;;;;;;;12.97;11.83;;;6.20;56.30;;;;;;4974112;28;20426;-91
2021/11/13 08:37:49;;;;;;;13.13;11.83;;;6.30;56.40;;;;;;4974224;28;20754;-89
2021/11/13 08:40:16;;;;;;;11.83;10.83;;;6.40;56.80;;;;;;4973505;28;20437;-89
2021/11/13 08:42:42;;;;;;;11.53;10.53;;;6.40;56.60;;;;;;4973999;28;20838;-87
2021/11/13 08:45:08;;;;;;;13.00;11.70;;;6.50;58.80;;;;;;4973327;28;20421;-88
2021/11/13 08:47:36;;;;;;;12.90;11.70;;;6.60;56.60;;;;;;4972989;28;20457;-91
2021/11/13 08:50:03;;;;;;;11.50;10.50;;;6.70;55.40;;;;;;4972728;28;20429;-89
2021/11/13 08:52:29;;;;;;;12.63;11.30;;;6.80;55.00;;;;;;4973061;28;20553;-87
2021/11/13 08:54:55;;;;;;;12.30;11.20;;;6.80;54.50;;;;;;4972874;28;20857;-87
2021/11/13 08:57:21;;;;;;;12.77;11.57;;;6.80;55.30;;;;;;4973327;28;20181;-86
2021/11/13 08:59:47;;;;;;;12.50;11.40;;;6.80;55.70;;;;;;4973041;28;20449;-86
2021/11/13 09:02:17;;;;;;;13.30;12.17;;;6.90;55.30;;;;;;4972913;28;20487;-84
2021/11/13 09:04:44;;;;;;;11.90;10.87;;;6.90;55.40;;;;;;4971608;28;20523;-82
2021/11/13 09:07:11;;;;;;;12.73;11.17;;;7.00;55.40;;;;;;4971126;28;20426;-82
2021/11/13 09:09:38;;;;;;;12.50;11.20;;;7.00;55.40;;;;;;4971566;28;20795;-82
2021/11/13 09:12:06;;;;;;;12.93;11.63;;;7.10;55.50;;;;;;4971817;28;20948;-84
2021/11/13 09:14:32;;;;;;;12.53;11.10;;;7.30;54.70;;;;;;4972447;28;20430;-85
2021/11/13 09:16:59;;;;;;;11.67;10.60;;;7.20;55.70;;;;;;4973745;28;20413;-84
2021/11/13 09:19:25;;;;;;;11.50;10.50;;;7.30;56.20;;;;;;4972581;28;20903;-86
2021/11/13 09:21:52;;;;;;;11.27;10.10;;;7.30;55.90;;;;;;4972345;28;20453;-85
2021/11/13 09:24:22;;;;;;;11.53;10.43;;;7.40;55.00;;;;;;4971992;28;20240;-85
2021/11/13 09:26:48;;;;;;;11.10;10.07;;;7.40;55.50;;;;;;4971649;28;20422;-85
2021/11/13 09:29:15;;;;;;;10.40;9.50;;;7.50;56.00;;;;;;4973251;28;20504;-86
2021/11/13 09:31:44;;;;;;;10.70;9.80;;;7.50;54.90;;;;;;4972398;28;20464;-85
2021/11/13 09:34:20;;;;;;;11.60;10.50;;;7.60;55.80;;;;;;4972067;28;20426;-86
2021/11/13 09:36:47;;;;;;;11.17;10.10;;;7.70;55.20;;;;;;4971855;28;20451;-84
2021/11/13 09:39:15;;;;;;;11.57;10.30;;;7.70;53.80;;;;;;4972160;28;20422;-87
2021/11/13 09:41:43;;;;;;;10.90;9.20;;;7.90;55.40;;;;;;4975673;28;20468;-86
2021/11/13 09:44:09;;;;;;;9.70;9.00;;;7.90;55.20;;;;;;4973472;28;20453;-87
2021/11/13 09:46:35;;;;;;;8.87;8.07;;;8.00;53.60;;;;;;4973320;28;20852;-87
2021/11/13 09:49:02;;;;;;;11.40;10.30;;;8.20;53.60;;;;;;4971577;28;20425;-87
2021/11/13 09:51:28;;;;;;;8.73;7.90;;;8.30;53.50;;;;;;4976324;28;20492;-87
2021/11/13 09:53:55;;;;;;;8.27;7.57;;;8.40;52.20;;;;;;4975704;28;20421;-86
2021/11/13 09:56:22;;;;;;;9.00;8.10;;;8.50;52.50;;;;;;4975881;28;20476;-86
2021/11/13 09:58:49;;;;;;;7.93;7.30;;;8.70;49.40;;;;;;4976006;28;20480;-88
2021/11/13 10:01:15;;;;;;;8.70;7.90;;;8.70;50.00;;;;;;4975661;28;20430;-84
2021/11/13 10:03:43;;;;;;;8.53;7.83;;;8.80;51.40;;;;;;4975198;28;20420;-87
2021/11/13 10:06:14;;;;;;;9.93;7.60;;;8.80;51.40;;;;;;4975527;28;20792;-85
2021/11/13 10:08:41;;;;;;;7.93;7.23;;;8.70;53.90;;;;;;4974917;28;20450;-84
2021/11/13 10:11:12;;;;;;;7.67;6.87;;;8.60;54.50;;;;;;4974935;28;20562;-85
2021/11/13 10:13:41;;;;;;;8.10;7.30;;;8.60;56.40;;;;;;4975419;28;20796;-86
2021/11/13 10:16:09;;;;;;;8.43;7.67;;;8.50;57.70;;;;;;4974971;28;20927;-86
2021/11/13 10:18:44;;;;;;;8.70;7.80;;;8.50;57.90;;;;;;4974909;28;20426;-86
2021/11/13 10:21:17;;;;;;;8.60;7.80;;;8.50;58.20;;;;;;4974769;28;20442;-86
2021/11/13 10:23:49;;;;;;;10.80;9.77;;;8.50;59.20;;;;;;4974831;28;20805;-87
2021/11/13 10:26:18;;;;;;;11.97;10.70;;;8.50;57.70;;;;;;4973990;28;20584;-85
2021/11/13 10:28:46;;;;;;;11.43;10.40;;;8.60;56.70;;;;;;4972826;28;20476;-85
2021/11/13 10:31:16;;;;;;;12.20;11.17;;;8.60;56.40;;;;;;4973389;28;20418;-85
2021/11/13 10:33:43;;;;;;;12.23;11.20;;;8.60;57.30;;;;;;4974545;28;20426;-85
2021/11/13 10:36:10;;;;;;;13.33;12.10;;;8.60;57.50;;;;;;4975850;28;20902;-85
2021/11/13 10:38:36;;;;;;;11.97;10.97;;;8.60;58.70;;;;;;4974464;28;20513;-85
2021/11/13 10:41:05;;;;;;;15.80;14.10;;;8.60;59.20;;;;;;4974525;28;20934;-85
2021/11/13 10:43:51;;;;;;;14.40;13.20;;;8.50;59.30;;;;;;4974571;28;20425;-86
2021/11/13 10:46:21;;;;;;;16.40;14.90;;;8.50;60.00;;;;;;4974078;28;20915;-85
2021/11/13 10:48:50;;;;;;;16.27;14.60;;;8.40;59.20;;;;;;4974814;28;20437;-85
2021/11/13 10:51:19;;;;;;;16.80;13.97;;;8.40;57.60;;;;;;4974914;28;20418;-87
2021/11/13 10:53:49;;;;;;;15.50;14.07;;;8.30;58.90;;;;;;4974801;28;20406;-87
2021/11/13 10:56:16;;;;;;;15.50;14.17;;;8.30;58.20;;;;;;4974196;28;20750;-83
2021/11/13 10:58:55;;;;;;;15.50;14.00;;;8.30;58.90;;;;;;4957183;28;20891;-84
2021/11/13 11:01:38;;;;;;;15.63;14.13;;;8.20;58.80;;;;;;4953132;28;20470;-84
2021/11/13 11:04:13;;;;;;;14.03;12.63;;;8.30;59.10;;;;;;4954771;28;20419;-85
2021/11/13 11:06:43;;;;;;;16.30;14.73;;;8.20;59.90;;;;;;4954507;28;20501;-85
2021/11/13 11:09:30;;;;;;;16.23;14.57;;;8.20;59.30;;;;;;4954518;28;20911;-85
2021/11/13 11:12:07;;;;;;;16.77;15.17;;;8.20;58.80;;;;;;4961838;28;20453;-86
2021/11/13 11:14:34;;;;;;;15.20;13.90;;;8.20;59.10;;;;;;4973919;28;20414;-86
2021/11/13 11:17:13;;;;;;;15.60;14.03;;;8.20;58.00;;;;;;4973568;28;20483;-86
2021/11/13 11:19:40;;;;;;;14.93;13.43;;;8.10;59.30;;;;;;4973655;28;20414;-85
2021/11/13 11:22:17;;;;;;;17.63;15.87;;;8.10;59.30;;;;;;4973699;28;20437;-86
2021/11/13 11:24:48;;;;;;;16.27;14.67;;;8.10;58.80;;;;;;4973625;28;20520;-85
2021/11/13 11:27:36;;;;;;;16.70;15.07;;;8.10;59.40;;;;;;4971990;28;20442;-85
2021/11/13 11:30:01;;;;;;;18.00;16.40;;;8.10;58.60;;;;;;4973445;28;20456;-86
2021/11/13 11:32:35;;;;;;;15.13;13.67;;;8.10;59.50;;;;;;4954609;28;20458;-85
2021/11/13 11:35:06;;;;;;;16.70;15.30;;;8.10;59.50;;;;;;4968859;28;20236;-85
2021/11/13 11:37:35;;;;;;;18.13;16.40;;;8.00;59.10;;;;;;4954280;29;20419;-86
2021/11/13 11:40:08;;;;;;;18.17;16.63;;;8.00;58.20;;;;;;4957935;28;20437;-85
2021/11/13 11:42:34;;;;;;;18.40;16.70;;;8.00;58.80;;;;;;4973004;28;20421;-84
2021/11/13 11:45:02;;;;;;;19.30;17.60;;;8.00;59.80;;;;;;4973539;28;20418;-85
2021/11/13 11:47:31;;;;;;;17.90;16.30;;;8.00;60.20;;;;;;4973649;28;20185;-86
2021/11/13 11:49:59;;;;;;;18.63;16.93;;;8.00;60.20;;;;;;4973773;28;20425;-85
2021/11/13 11:52:27;;;;;;;20.23;18.50;;;8.00;59.00;;;;;;4973563;28;20548;-85
2021/11/13 11:54:54;;;;;;;19.17;17.57;;;8.00;60.30;;;;;;4972921;28;20414;-85
2021/11/13 11:57:43;;;;;;;19.37;17.67;;;7.90;60.90;;;;;;4973825;28;20406;-85
2021/11/13 12:00:11;;;;;;;22.97;20.87;;;7.90;60.90;;;;;;4973432;28;20476;-86
2021/11/13 12:02:48;;;;;;;21.03;19.03;;;7.80;60.00;;;;;;4973238;28;20524;-86
2021/11/13 12:05:17;;;;;;;20.27;18.47;;;7.90;59.20;;;;;;4972890;28;20420;-84
2021/11/13 12:07:44;;;;;;;19.63;17.57;;;7.90;59.70;;;;;;4972801;28;20425;-84
2021/11/13 12:10:30;;;;;;;18.70;16.80;;;7.90;59.30;;;;;;4973691;28;20498;-86
2021/11/13 12:13:11;;;;;;;20.30;17.57;;;7.90;59.30;;;;;;4973400;28;20475;-85
2021/11/13 12:15:50;;;;;;;19.97;18.17;;;7.90;59.30;;;;;;4974220;28;20438;-85
2021/11/13 12:18:35;;;;;;;19.33;17.63;;;8.00;58.50;;;;;;4974094;28;20410;-85
2021/11/13 12:21:04;;;;;;;18.73;16.83;;;8.00;58.80;;;;;;4973177;28;20528;-85
2021/11/13 12:23:31;;;;;;;20.07;18.27;;;8.10;58.80;;;;;;4973416;28;20434;-84
2021/11/13 12:26:10;;;;;;;18.00;16.40;;;8.10;58.40;;;;;;4973076;28;20422;-83
2021/11/13 12:28:42;;;;;;;19.47;17.67;;;8.20;59.10;;;;;;4972931;28;20437;-84
2021/11/13 12:31:30;;;;;;;18.30;16.60;;;8.30;60.50;;;;;;4973243;28;20800;-85
2021/11/13 12:34:08;;;;;;;17.67;16.17;;;8.30;59.60;;;;;;4963085;28;20429;-85
2021/11/13 12:37:04;;;;;;;20.27;17.47;;;8.30;59.20;;;;;;4972984;28;20834;-85
2021/11/13 12:39:36;;;;;;;17.33;15.73;;;8.40;59.40;;;;;;4972746;28;20508;-85
2021/11/13 12:42:07;;;;;;;17.27;15.63;;;8.40;58.30;;;;;;4972945;28;20429;-85
2021/11/13 12:44:35;;;;;;;17.67;15.53;;;8.40;59.40;;;;;;4972344;28;20425;-85
2021/11/13 12:47:16;;;;;;;19.00;17.30;;;8.40;60.60;;;;;;4972364;28;20418;-85
2021/11/13 12:49:48;;;;;;;19.03;17.13;;;8.50;58.80;;;;;;4972764;28;20701;-84